• Join FlightAware (Why Join?)
  • Login
  • US Flag 
07:02AM EDT


 

Airport Tracker/Info


-or-


 

Live Flight TrackerFlight Track Log ✈ UAL1409 ✈ 24-Apr-2013 ✈ TAPA / ANU - KEWR

Flight Track Log - Related Links

Times and Time Zones

All times are in EDT time to prevent confusion due to time zone crossing. See the UAL1409 flight status page for this flight to view local times or setup timezone preferences in your user account.

Time Position Orientation Groundspeed Altitude Reporting Facility
EDT Latitude Longitude Course Direction KTS MPH feet Rate Location/Type
02:11PM 17.1875 -61.8729 305° West  Level FlightAware Approximate
02:12PM 17.2592 -61.9734 308° West  Level FlightAware Approximate
02:13PM 17.3297 -62.0742 303° West  Level FlightAware Approximate
02:14PM 17.3991 -62.1765 308° West  Level FlightAware Approximate
02:15PM 17.4725 -62.2757 304° West  Level FlightAware Approximate
02:16PM 17.5399 -62.3797 304° West  Level FlightAware Approximate
02:17PM 17.6072 -62.4837 304° West  Level FlightAware Approximate
02:18PM 17.6695 -62.5871 308° West  Level FlightAware Approximate
02:19PM 17.7437 -62.6860 308° West  Level FlightAware Approximate
02:20PM 17.8131 -62.7885 302° West  Level FlightAware Approximate
02:21PM 17.8766 -62.8899 305° West  Level FlightAware Approximate
02:22PM 17.9465 -62.9864 305° West  Level FlightAware Approximate
02:23PM 18.0104 -63.0875 298° West  Level FlightAware Approximate
02:24PM 18.1115 -63.1290 351° North  Level FlightAware Approximate
02:25PM 18.2258 -63.1470 351° North  Level FlightAware Approximate
02:26PM 18.3401 -63.1651 351° North  Level FlightAware Approximate
02:27PM 18.4533 -63.1872 350° North  Level FlightAware Approximate
02:28PM 18.5670 -63.2093 350° North  Level FlightAware Approximate
02:29PM 18.6806 -63.2313 350° North  Level FlightAware Approximate
02:30PM 18.7961 -63.2538 350° North  Level FlightAware Approximate
02:31PM 18.9116 -63.2763 350° North  Level FlightAware Approximate
02:32PM 19.0272 -63.2988 350° North  Level FlightAware Approximate
02:33PM 19.1429 -63.3200 350° North  Level FlightAware Approximate
02:33PM 17.4500 -62.0667 350° North 510 587 15,300  Level San Juan Center
02:34PM 19.2587 -63.3412 350° North  Level FlightAware Approximate
02:34PM 17.5000 -62.1667 298° West 390 449 17,800  Level San Juan Center
02:35PM 19.3744 -63.3624 350° North  Level FlightAware Approximate
02:35PM 17.5333 -62.2833 287° West 380 437 20,600  Level San Juan Center
02:36PM 19.4902 -63.3836 350° North  Level FlightAware Approximate
02:37PM 19.6059 -63.4049 350° North  Level FlightAware Approximate
02:37PM 17.6167 -62.4833 294° West 410 472 23,700  Level San Juan Center
02:38PM 19.7217 -63.4262 350° North  Level FlightAware Approximate
02:38PM 17.6667 -62.6000 294° West 430 495 24,000  Level San Juan Center
02:39PM 17.7500 -62.7167 307° West 450 518 24,700 1,020 Climbing San Juan Center
02:40PM 17.8833 -62.7500 347° North 470 541 26,100 1,500 Climbing San Juan Center
02:41PM 18.0167 -62.7833 347° North 480 552 27,800 1,860 Climbing San Juan Center
02:42PM 18.1333 -62.8167 345° North 480 552 29,900 1,740 Climbing San Juan Center
02:43PM 18.2667 -62.8500 347° North 470 541 31,400 1,200 Climbing San Juan Center
02:44PM 18.3833 -62.8833 345° North 460 529 32,300 1,020 Climbing San Juan Center
02:45PM 18.5167 -62.9167 347° North 460 529 33,500 1,140 Climbing San Juan Center
02:46PM 18.6333 -62.9667 338° Northwest 470 541 34,700 960 Climbing San Juan Center
02:47PM 18.7667 -63.0000 347° North 470 541 35,500 600 Climbing San Juan Center
02:48PM 18.9000 -63.0167 353° North 450 518 36,000 240 Climbing San Juan Center
02:49PM 19.0167 -63.0500 345° North 450 518 36,000  Level San Juan Center
02:50PM 19.1333 -63.0833 345° North 460 529 36,000  Level San Juan Center
02:51PM 19.2667 -63.1167 347° North 460 529 36,000  Level San Juan Center
02:52PM 19.3833 -63.1500 345° North 460 529 36,000  Level San Juan Center
02:53PM 19.5167 -63.1833 347° North 450 518 36,000  Level San Juan Center
02:54PM 19.6333 -63.2167 345° North 460 529 36,000  Level San Juan Center
02:55PM 19.7667 -63.2500 347° North 460 529 36,000  Level San Juan Center
02:56PM 19.8833 -63.2833 345° North 460 529 36,000  Level San Juan Center
02:57PM 20.0000 -63.3167 345° North 460 529 36,000  Level San Juan Center
02:58PM 20.1333 -63.3500 347° North 460 529 36,000  Level San Juan Center
02:59PM 20.2500 -63.3833 345° North 450 518 36,000  Level San Juan Center
03:00PM 20.3833 -63.4167 347° North 450 518 36,000  Level San Juan Center
03:01PM 20.5000 -63.4500 345° North 460 529 36,000  Level San Juan Center
03:02PM 20.6167 -63.4833 345° North 460 529 36,000  Level San Juan Center
03:04PM 20.8667 -63.5500 346° North 450 518 36,000  Level San Juan Center
03:05PM 21.0000 -63.6000 341° North 460 529 36,000  Level San Juan Center
03:07PM 21.2108 -63.6593 345° North  Level FlightAware Approximate
03:14PM 22.0358 -63.8709 349° North  Level FlightAware Approximate
03:15PM 22.1548 -63.8950 349° North  Level FlightAware Approximate
03:16PM 22.2734 -63.9191 349° North  Level FlightAware Approximate
03:17PM 22.3920 -63.9432 349° North  Level FlightAware Approximate
03:18PM 22.5106 -63.9674 349° North  Level FlightAware Approximate
03:19PM 22.6292 -63.9916 349° North  Level FlightAware Approximate
03:20PM 22.7478 -64.0158 349° North  Level FlightAware Approximate
03:21PM 22.8665 -64.0396 350° North  Level FlightAware Approximate
03:21PM 21.8500 -63.8500 350° North 463 533 36,000  Level New York Oceanic (ODAPS)
03:22PM 22.9854 -64.0622 350° North  Level FlightAware Approximate
03:23PM 23.1042 -64.0848 350° North  Level FlightAware Approximate
03:24PM 23.2231 -64.1074 350° North  Level FlightAware Approximate
03:25PM 23.3420 -64.1301 350° North  Level FlightAware Approximate
03:26PM 23.4608 -64.1528 350° North  Level FlightAware Approximate
03:27PM 23.7579 -64.2286 350° North 463 533 36,000  Level FlightAware Transoceanic
03:28PM 23.8851 -64.2543 350° North 463 533 36,000  Level FlightAware Transoceanic
03:29PM 24.0122 -64.2800 350° North 463 533 36,000  Level FlightAware Transoceanic
03:30PM 24.1394 -64.3057 350° North 463 533 36,000  Level FlightAware Transoceanic
03:31PM 24.2665 -64.3315 350° North 463 533 36,000  Level FlightAware Transoceanic
03:32PM 24.3937 -64.3573 350° North 463 533 36,000  Level FlightAware Transoceanic
03:33PM 24.5208 -64.3832 349° North 463 533 36,000  Level FlightAware Transoceanic
03:34PM 24.6479 -64.4091 349° North 463 533 36,000  Level FlightAware Transoceanic
03:35PM 24.7751 -64.4351 349° North 463 533 36,000  Level FlightAware Transoceanic
03:36PM 24.9022 -64.4612 349° North 463 533 36,000  Level FlightAware Transoceanic
03:37PM 25.0293 -64.4872 349° North 463 533 36,000  Level FlightAware Transoceanic
03:38PM 25.1564 -64.5134 349° North 463 533 36,000  Level FlightAware Transoceanic
03:39PM 25.2835 -64.5396 349° North 463 533 36,000  Level FlightAware Transoceanic
03:40PM 25.4106 -64.5659 349° North 463 533 36,000  Level FlightAware Transoceanic
03:41PM 25.5377 -64.5922 349° North 463 533 36,000  Level FlightAware Transoceanic
03:42PM 25.6648 -64.6186 349° North 463 533 36,000  Level FlightAware Transoceanic
03:43PM 25.7919 -64.6450 349° North 463 533 36,000  Level FlightAware Transoceanic
03:44PM 25.9190 -64.6715 349° North 463 533 36,000  Level FlightAware Transoceanic
03:45PM 26.0461 -64.6980 349° North 463 533 36,000  Level FlightAware Transoceanic
03:46PM 26.1732 -64.7246 349° North 463 533 36,000  Level FlightAware Transoceanic
03:47PM 26.3003 -64.7513 349° North 463 533 36,000  Level FlightAware Transoceanic
03:48PM 26.4273 -64.7780 349° North 463 533 36,000  Level FlightAware Transoceanic
03:49PM 26.5544 -64.8047 349° North 463 533 36,000  Level FlightAware Transoceanic
03:50PM 26.6814 -64.8316 349° North 463 533 36,000  Level FlightAware Transoceanic
03:51PM 26.8085 -64.8585 349° North 463 533 36,000  Level FlightAware Transoceanic
03:52PM 26.9356 -64.8854 349° North 463 533 36,000  Level FlightAware Transoceanic
03:53PM 27.0626 -64.9125 349° North 463 533 36,000  Level FlightAware Transoceanic
03:54PM 27.1896 -64.9395 349° North 463 533 36,000  Level FlightAware Transoceanic
03:55PM 27.3167 -64.9667 349° North 463 533 36,000  Level FlightAware Transoceanic
03:56PM 27.4480 -64.9943 349° North 463 533 36,000  Level FlightAware Transoceanic
03:57PM 27.5793 -65.0220 349° North 463 533 36,000  Level FlightAware Transoceanic
03:58PM 27.7105 -65.0497 349° North 463 533 36,000  Level FlightAware Transoceanic
03:59PM 27.8418 -65.0775 349° North 463 533 36,000  Level FlightAware Transoceanic
04:00PM 27.9731 -65.1054 349° North 463 533 36,000  Level FlightAware Transoceanic
04:01PM 28.1043 -65.1333 349° North 463 533 36,000 1,620 Level FlightAware Transoceanic
04:01PM 27.3167 -64.9667 349° North 452 520 38,000  Climbing New York Oceanic (ODAPS)
04:02PM 28.2356 -65.1614 349° North 463 533 36,000 -1,140 Descending FlightAware Transoceanic
04:03PM 28.3668 -65.1894 349° North 463 533 36,000  Level FlightAware Transoceanic
04:04PM 28.4981 -65.2176 349° North 463 533 36,000  Level FlightAware Transoceanic
04:05PM 28.6293 -65.2458 349° North 463 533 36,000  Level FlightAware Transoceanic
04:06PM 28.7606 -65.2741 349° North 463 533 36,000 960 Level FlightAware Transoceanic
04:07PM 28.6757 -65.2558 349° North 452 520 38,000 960 Climbing FlightAware Transoceanic
04:08PM 28.7992 -65.2824 349° North 452 520 38,000  Level FlightAware Transoceanic
04:09PM 28.9227 -65.3092 349° North 452 520 38,000  Level FlightAware Transoceanic
04:10PM 29.0462 -65.3359 349° North 452 520 38,000  Level FlightAware Transoceanic
04:11PM 29.1697 -65.3628 349° North 452 520 38,000  Level FlightAware Transoceanic
04:12PM 29.2932 -65.3897 349° North 452 520 38,000  Level FlightAware Transoceanic
04:13PM 29.4167 -65.4167 349° North 452 520 38,000  Level FlightAware Transoceanic
04:14PM 29.5435 -65.4441 349° North 452 520 38,000  Level FlightAware Transoceanic
04:15PM 29.6704 -65.4716 349° North 452 520 38,000  Level FlightAware Transoceanic
04:15PM 29.4167 -65.4167 349° North 474 545 38,000  Level New York Oceanic (ODAPS)
04:16PM 29.7973 -65.4992 349° North 452 520 38,000  Level FlightAware Transoceanic
04:17PM 29.9241 -65.5269 349° North 452 520 38,000  Level FlightAware Transoceanic
04:18PM 30.0510 -65.5546 349° North 452 520 38,000  Level FlightAware Transoceanic
04:19PM 30.1778 -65.5825 349° North 452 520 38,000  Level FlightAware Transoceanic
04:20PM 30.3047 -65.6103 349° North 452 520 38,000  Level FlightAware Transoceanic
04:21PM 30.4557 -65.6436 349° North 474 545 38,000  Level FlightAware Transoceanic
04:22PM 30.5855 -65.6723 349° North 474 545 38,000  Level FlightAware Transoceanic
04:23PM 30.7154 -65.7011 349° North 474 545 38,000  Level FlightAware Transoceanic
04:24PM 30.8452 -65.7300 349° North 474 545 38,000  Level FlightAware Transoceanic
04:25PM 30.9750 -65.7589 349° North 474 545 38,000  Level FlightAware Transoceanic
04:26PM 31.1049 -65.7879 349° North 474 545 38,000  Level FlightAware Transoceanic
04:27PM 31.2347 -65.8170 349° North 474 545 38,000  Level FlightAware Transoceanic
04:28PM 31.3645 -65.8462 349° North 474 545 38,000  Level FlightAware Transoceanic
04:29PM 31.4943 -65.8755 349° North 474 545 38,000  Level FlightAware Transoceanic
04:30PM 31.6241 -65.9048 349° North 474 545 38,000  Level FlightAware Transoceanic
04:31PM 31.7539 -65.9342 349° North 474 545 38,000  Level FlightAware Transoceanic
04:32PM 31.8837 -65.9637 349° North 474 545 38,000  Level FlightAware Transoceanic
04:33PM 32.0134 -65.9933 349° North 474 545 38,000  Level FlightAware Transoceanic
04:34PM 32.1432 -66.0230 349° North 474 545 38,000  Level FlightAware Transoceanic
04:35PM 32.2730 -66.0527 349° North 474 545 38,000  Level FlightAware Transoceanic
04:36PM 32.4027 -66.0826 349° North 474 545 38,000  Level FlightAware Transoceanic
04:37PM 32.5325 -66.1125 349° North 474 545 38,000  Level FlightAware Transoceanic
04:38PM 32.6622 -66.1425 349° North 474 545 38,000  Level FlightAware Transoceanic
04:39PM 32.7919 -66.1726 349° North 474 545 38,000  Level FlightAware Transoceanic
04:40PM 32.9217 -66.2028 349° North 474 545 38,000  Level FlightAware Transoceanic
04:41PM 33.0514 -66.2331 349° North 474 545 38,000  Level FlightAware Transoceanic
04:42PM 33.1811 -66.2634 349° North 474 545 38,000  Level FlightAware Transoceanic
04:43PM 33.3108 -66.2939 349° North 474 545 38,000  Level FlightAware Transoceanic
04:44PM 33.4405 -66.3244 349° North 474 545 38,000  Level FlightAware Transoceanic
04:45PM 33.5702 -66.3551 349° North 474 545 38,000  Level FlightAware Transoceanic
04:46PM 33.6999 -66.3858 349° North 474 545 38,000  Level FlightAware Transoceanic
04:47PM 33.8296 -66.4166 349° North 474 545 38,000  Level FlightAware Transoceanic
04:48PM 33.9592 -66.4476 349° North 474 545 38,000  Level FlightAware Transoceanic
04:49PM 34.0889 -66.4786 349° North 474 545 38,000  Level FlightAware Transoceanic
04:50PM 34.2185 -66.5097 349° North 474 545 38,000  Level FlightAware Transoceanic
04:51PM 34.3482 -66.5409 349° North 474 545 38,000  Level FlightAware Transoceanic
04:52PM 34.4778 -66.5722 349° North 474 545 38,000  Level FlightAware Transoceanic
04:53PM 34.6074 -66.6036 349° North 474 545 38,000  Level FlightAware Transoceanic
04:54PM 34.7371 -66.6351 349° North 474 545 38,000  Level FlightAware Transoceanic
04:55PM 34.8667 -66.6667 323° Northwest 474 545 38,000  Level FlightAware Transoceanic
04:56PM 34.9670 -66.7597 323° Northwest 474 545 38,000  Level FlightAware Transoceanic
04:57PM 35.0673 -66.8529 323° Northwest 474 545 38,000  Level FlightAware Transoceanic
04:58PM 35.1675 -66.9464 323° Northwest 474 545 38,000  Level FlightAware Transoceanic
04:59PM 35.2676 -67.0401 323° Northwest 474 545 38,000  Level FlightAware Transoceanic
05:00PM 35.3677 -67.1341 323° Northwest 474 545 38,000  Level FlightAware Transoceanic
05:00PM 34.8667 -66.6667 323° Northwest 439 505 38,000  Level New York Oceanic (ODAPS)
05:01PM 35.4677 -67.2282 322° Northwest 474 545 38,000  Level FlightAware Transoceanic
05:02PM 35.5676 -67.3227 322° Northwest 474 545 38,000  Level FlightAware Transoceanic
05:03PM 35.6674 -67.4173 322° Northwest 474 545 38,000  Level FlightAware Transoceanic
05:04PM 35.7672 -67.5122 322° Northwest 474 545 38,000  Level FlightAware Transoceanic
05:05PM 35.8668 -67.6073 322° Northwest 474 545 38,000  Level FlightAware Transoceanic
05:06PM 35.8392 -67.5809 322° Northwest 439 505 38,000  Level FlightAware Transoceanic
05:07PM 35.9360 -67.6735 322° Northwest 439 505 38,000  Level FlightAware Transoceanic
05:08PM 36.0328 -67.7664 322° Northwest 439 505 38,000  Level FlightAware Transoceanic
05:09PM 36.1295 -67.8595 322° Northwest 439 505 38,000  Level FlightAware Transoceanic
05:10PM 36.2262 -67.9528 322° Northwest 439 505 38,000  Level FlightAware Transoceanic
05:11PM 36.3228 -68.0464 322° Northwest 439 505 38,000  Level FlightAware Transoceanic
05:12PM 36.4193 -68.1402 322° Northwest 439 505 38,000  Level FlightAware Transoceanic
05:13PM 36.5157 -68.2342 322° Northwest 439 505 38,000  Level FlightAware Transoceanic
05:14PM 36.6121 -68.3285 322° Northwest 439 505 38,000  Level FlightAware Transoceanic
05:15PM 36.7084 -68.4230 322° Northwest 439 505 38,000  Level FlightAware Transoceanic
05:16PM 36.8046 -68.5177 322° Northwest 439 505 38,000  Level FlightAware Transoceanic
05:17PM 36.9007 -68.6126 322° Northwest 439 505 38,000  Level FlightAware Transoceanic
05:18PM 36.9967 -68.7079 322° Northwest 439 505 38,000  Level FlightAware Transoceanic
05:19PM 37.0927 -68.8033 322° Northwest 439 505 38,000  Level FlightAware Transoceanic
05:20PM 37.1886 -68.8990 321° Northwest 439 505 38,000  Level FlightAware Transoceanic
05:21PM 37.2845 -68.9949 321° Northwest 439 505 38,000  Level FlightAware Transoceanic
05:22PM 37.3802 -69.0911 321° Northwest 439 505 38,000  Level FlightAware Transoceanic
05:23PM 37.4759 -69.1876 321° Northwest 439 505 38,000  Level FlightAware Transoceanic
05:24PM 37.5715 -69.2842 321° Northwest 439 505 38,000  Level FlightAware Transoceanic
05:25PM 37.6670 -69.3811 321° Northwest 439 505 38,000 -60 Level FlightAware Transoceanic
05:25PM 37.7392 -69.4511 321° Northwest 448 516 37,900  Descending New York Center
05:26PM 37.7624 -69.4783 321° Northwest 439 505 38,000  Climbing FlightAware Transoceanic
05:26PM 37.8300 -69.5469 320° Northwest 437 503 37,900  Descending New York Center
05:27PM 37.8578 -69.5757 321° Northwest 439 505 38,000 60 Climbing FlightAware Transoceanic
05:27PM 37.9225 -69.6378 322° Northwest 426 490 38,000  Level New York Center
05:28PM 37.9530 -69.6734 321° Northwest 439 505 38,000 -120 Level FlightAware Transoceanic
05:28PM 38.0131 -69.7339 320° Northwest 426 490 37,900  Descending New York Center
05:29PM 38.0482 -69.7713 321° Northwest 439 505 38,000 60 Climbing FlightAware Transoceanic
05:29PM 38.1014 -69.8303 319° Northwest 421 484 38,000  Level New York Center
05:30PM 38.1434 -69.8695 321° Northwest 439 505 38,000 -120 Level FlightAware Transoceanic
05:30PM 38.1939 -69.9217 322° Northwest 421 484 37,900 -120 Descending New York Center
05:31PM 38.2861 -70.0106 323° Northwest 421 484 37,900  Level New York Center
05:32PM 38.3514 -70.1397 303° West 430 495 38,000  Climbing New York Center
05:33PM 38.4106 -70.2586 302° West 417 480 37,900  Descending New York Center
05:34PM 38.4672 -70.3908 299° West 417 480 38,000  Climbing New York Center
05:35PM 38.5197 -70.5286 296° West 424 488 38,000  Level New York Center
05:36PM 38.5761 -70.6586 299° West 424 488 38,000  Level New York Center
05:37PM 38.6261 -70.7994 294° West 429 494 38,000  Level New York Center
05:38PM 38.6281 -70.9483 271° West 419 482 38,000  Level New York Center
05:39PM 38.6131 -71.0997 263° West 420 483 38,000 -60 Level New York Center
05:40PM 38.5978 -71.2511 263° West 428 493 37,900 -60 Descending New York Center
05:41PM 38.5867 -71.3997 265° West 433 498 37,900  Level New York Center
05:42PM 38.5731 -71.5511 263° West 427 491 37,900  Level New York Center
05:43PM 38.5617 -71.6969 264° West 422 486 38,000  Climbing New York Center
05:44PM 38.5478 -71.8508 263° West 428 493 37,900 -60 Descending New York Center
05:45PM 38.5339 -71.9914 263° West 428 493 37,900 -120 Level New York Center
05:46PM 38.5383 -72.1400 272° West 423 487 37,700 -600 Descending New York Center
05:47PM 38.6206 -72.2506 314° West 383 441 36,700 -960 Descending New York Center
05:48PM 38.7003 -72.3614 313° West 406 467 35,800 -1,740 Descending New York Center
05:49PM 38.7800 -72.4669 314° West 411 473 33,300 -2,940 Descending New York Center
05:50PM 38.8597 -72.5783 313° West 411 473 30,100 -2,880 Descending New York Center
05:51PM 38.9311 -72.6789 312° West 420 483 27,600 -2,580 Descending New York Center
05:52PM 39.0147 -72.7933 313° West 426 490 25,000 -2,460 Descending New York Center
05:53PM 39.0939 -72.9028 313° West 426 490 22,700 -2,340 Descending New York Center
05:54PM 39.1731 -73.0175 312° West 421 484 20,400 -2,460 Descending New York Center
05:55PM 39.2564 -73.1356 312° West 416 479 18,000 -2,340 Descending New York Center
05:56PM 39.3250 -73.2372 311° West 402 463 15,900 -1,920 Descending New York Center
05:57PM 39.3958 -73.3336 314° West 381 438 14,200 -1,860 Descending New York Center
05:58PM 39.4628 -73.4275 313° West 361 415 12,200 -2,040 Descending New York Center
05:59PM 39.5253 -73.5161 312° West 348 400 10,200 -1,140 Descending New York Center
06:00PM 39.5644 -73.6225 296° West 328 377 10,000 -120 Descending New York Center
06:01PM 39.5633 -73.7436 269° West 321 369 10,000  Level New York Center
06:02PM 39.6197 -73.8242 312° West 310 357 10,000 -660 Level New York Center
06:03PM 39.6986 -73.9142 319° Northwest 338 389 8,700 -1,440 Descending New York Center
06:04PM 39.7714 -73.9983 318° Northwest 352 405 7,200 -1,020 Descending New York Center
06:05PM 39.8297 -74.0714 316° Northwest 330 380 6,700 -600 Descending New York Center
06:06PM 39.8569 -74.1431 296° West 268 308 6,100 -300 Descending New York Center
06:07PM 39.8878 -74.2283 295° West 248 285 6,100  Level New York Center
06:08PM 39.9206 -74.3167 296° West 248 285 6,100  Level New York Center
06:09PM 39.9794 -74.3711 325° Northwest 256 295 6,100 -60 Level New York Center
06:10PM 40.0511 -74.4100 337° Northwest 268 308 6,000 -60 Descending New York Center
06:11PM 40.1167 -74.4486 336° Northwest 279 321 6,000 60 Level New York Center
06:12PM 40.1500 -74.4667 338° Northwest 287 330 6,100 60 Climbing New York TRACON
06:13PM 40.2167 -74.5167 330° Northwest 266 306 6,100  Level New York TRACON
06:14PM 40.2667 -74.5667 323° Northwest 229 264 6,100  Level New York TRACON
06:15PM 40.3000 -74.6333 303° West 219 252 6,100 -120 Level New York TRACON
06:15PM 40.3308 -74.6589 328° Northwest 220 253 6,000 -120 Descending New York Center
06:16PM 40.4014 -74.6656 356° North 225 259 6,000 60 Level New York Center
06:17PM 40.4500 -74.6667 359° North 259 298 6,100 60 Climbing New York TRACON
06:18PM 40.5000 -74.6000 45° Northeast 281 323 6,100 -60 Level New York TRACON
06:19PM 40.5500 -74.5333 45° Northeast 280 322 6,000  Descending New York TRACON
06:20PM 40.6000 -74.5667 333° Northwest 230 265 6,100  Climbing New York TRACON
06:20PM 40.6500 -74.6000 333° Northwest 246 283 6,100  Level New York TRACON
06:22PM 40.7333 -74.6000 360° North 270 311 6,100  Level New York TRACON
06:23PM 40.8000 -74.5667 21° North 271 312 6,100 -360 Level New York TRACON
06:23PM 40.8667 -74.5333 21° North 278 320 5,500 -720 Descending New York TRACON
06:24PM 40.9133 -74.4944 32° Northeast 272 313 5,000 -300 Descending New York Center
06:25PM 40.9781 -74.4869 North 250 288 5,000  Level New York Center
06:26PM 41.0483 -74.4414 26° Northeast 245 282 5,000  Level New York Center
06:27PM 41.0964 -74.3697 48° Northeast 250 288 5,000 60 Level New York Center
06:28PM 41.1000 -74.3333 82° East 267 307 5,100 60 Climbing New York TRACON
06:29PM 41.0833 -74.2500 105° East 233 268 5,100 -240 Level New York TRACON
06:30PM 41.0500 -74.1833 124° Southeast 228 262 4,700 -600 Descending New York TRACON
06:31PM 41.0000 -74.1500 153° Southeast 168 193 4,000 -360 Descending New York TRACON
06:32PM 40.9500 -74.1333 166° South 165 190 4,000 -300 Level New York TRACON
06:33PM 40.9333 -74.0833 114° Southeast 187 215 3,500 -540 Descending New York TRACON
06:34PM 40.9000 -74.0333 131° Southeast 166 191 3,000 -300 Descending New York TRACON
06:34PM 40.8667 -74.0500 201° Southwest 155 178 3,000 -240 Level New York TRACON
06:36PM 40.8167 -74.0833 207° Southwest 152 175 2,600 -540 Descending New York TRACON
06:37PM 40.7833 -74.1000 201° Southwest 143 165 1,900 -720 Descending New York TRACON